Aviation Digital Data Service (ADDS)

Output produced by METARs form (1436 UTC 21 May 2019)
found at http://www.aviationweather.gov/metar/data/
 
METAR text: ROMY 211100Z 36006KT 9999 SCT034 22/16 Q1009
Conditions at: ROMY (MIYAKOJIMA ISLAN, JP) observed 1100 UTC 21 May 2019
Temperature: 22.0°C (72°F)
Dewpoint: 16.0°C (61°F) [RH = 69%]
Pressure (altimeter): 29.79 inches Hg (1009.0 mb)
Winds: from the N (360 degrees) at 7 MPH (6 knots; 3.1 m/s)
Visibility: 6 or more miles (10+ km)
Ceiling: at least 12,000 feet AGL
Clouds: scattered clouds at 3400 feet AGL
Weather: no significant weather observed at this time

METAR text: ROMY 211000Z 02008KT 9999 SCT034 23/16 Q1009
Conditions at: ROMY (MIYAKOJIMA ISLAN, JP) observed 1000 UTC 21 May 2019
Temperature: 23.0°C (73°F)
Dewpoint: 16.0°C (61°F) [RH = 65%]
Pressure (altimeter): 29.79 inches Hg (1009.0 mb)
Winds: from the NNE (20 degrees) at 9 MPH (8 knots; 4.1 m/s)
Visibility: 6 or more miles (10+ km)
Ceiling: at least 12,000 feet AGL
Clouds: scattered clouds at 3400 feet AGL
Weather: no significant weather observed at this time

METAR text: ROMY 210900Z 02010KT 9999 SCT033 23/16 Q1008
Conditions at: ROMY (MIYAKOJIMA ISLAN, JP) observed 0900 UTC 21 May 2019
Temperature: 23.0°C (73°F)
Dewpoint: 16.0°C (61°F) [RH = 65%]
Pressure (altimeter): 29.76 inches Hg (1008.0 mb)
Winds: from the NNE (20 degrees) at 12 MPH (10 knots; 5.1 m/s)
Visibility: 6 or more miles (10+ km)
Ceiling: at least 12,000 feet AGL
Clouds: scattered clouds at 3300 feet AGL
Weather: no significant weather observed at this time

METAR text: ROMY 210800Z 02012KT 340V050 9999 SCT031 24/17 Q1008
Conditions at: ROMY (MIYAKOJIMA ISLAN, JP) observed 0800 UTC 21 May 2019
Temperature: 24.0°C (75°F)
Dewpoint: 17.0°C (63°F) [RH = 65%]
Pressure (altimeter): 29.76 inches Hg (1008.0 mb)
Winds: from the NNE (20 degrees) at 14 MPH (12 knots; 6.2 m/s)
Visibility: 6 or more miles (10+ km)
Ceiling: at least 12,000 feet AGL
Clouds: scattered clouds at 3100 feet AGL
Weather: no significant weather observed at this time

METAR text: ROMY 210700Z 03012KT 360V060 9999 SCT031 24/17 Q1008
Conditions at: ROMY (MIYAKOJIMA ISLAN, JP) observed 0700 UTC 21 May 2019
Temperature: 24.0°C (75°F)
Dewpoint: 17.0°C (63°F) [RH = 65%]
Pressure (altimeter): 29.76 inches Hg (1008.0 mb)
Winds: from the NNE (30 degrees) at 14 MPH (12 knots; 6.2 m/s)
Visibility: 6 or more miles (10+ km)
Ceiling: at least 12,000 feet AGL
Clouds: scattered clouds at 3100 feet AGL
Weather: no significant weather observed at this time

METAR text: ROMY 210600Z 02012KT 340V060 9999 SCT030 25/17 Q1008
Conditions at: ROMY (MIYAKOJIMA ISLAN, JP) observed 0600 UTC 21 May 2019
Temperature: 25.0°C (77°F)
Dewpoint: 17.0°C (63°F) [RH = 61%]
Pressure (altimeter): 29.76 inches Hg (1008.0 mb)
Winds: from the NNE (20 degrees) at 14 MPH (12 knots; 6.2 m/s)
Visibility: 6 or more miles (10+ km)
Ceiling: at least 12,000 feet AGL
Clouds: scattered clouds at 3000 feet AGL
Weather: no significant weather observed at this time

METAR text: ROMY 210500Z 01012KT 340V040 9999 SCT030 25/17 Q1009
Conditions at: ROMY (MIYAKOJIMA ISLAN, JP) observed 0500 UTC 21 May 2019
Temperature: 25.0°C (77°F)
Dewpoint: 17.0°C (63°F) [RH = 61%]
Pressure (altimeter): 29.79 inches Hg (1009.0 mb)
Winds: from the N (10 degrees) at 14 MPH (12 knots; 6.2 m/s)
Visibility: 6 or more miles (10+ km)
Ceiling: at least 12,000 feet AGL
Clouds: scattered clouds at 3000 feet AGL
Weather: no significant weather observed at this time

METAR text: ROMY 210400Z 02012KT 350V050 9999 FEW034 25/16 Q1009
Conditions at: ROMY (MIYAKOJIMA ISLAN, JP) observed 0400 UTC 21 May 2019
Temperature: 25.0°C (77°F)
Dewpoint: 16.0°C (61°F) [RH = 57%]
Pressure (altimeter): 29.79 inches Hg (1009.0 mb)
Winds: from the NNE (20 degrees) at 14 MPH (12 knots; 6.2 m/s)
Visibility: 6 or more miles (10+ km)
Ceiling: at least 12,000 feet AGL
Clouds: few clouds at 3400 feet AGL
Weather: no significant weather observed at this time

METAR text: ROMY 210300Z 01013KT 340V050 9999 FEW033 25/16 Q1010
Conditions at: ROMY (MIYAKOJIMA ISLAN, JP) observed 0300 UTC 21 May 2019
Temperature: 25.0°C (77°F)
Dewpoint: 16.0°C (61°F) [RH = 57%]
Pressure (altimeter): 29.82 inches Hg (1010.0 mb)
Winds: from the N (10 degrees) at 15 MPH (13 knots; 6.7 m/s)
Visibility: 6 or more miles (10+ km)
Ceiling: at least 12,000 feet AGL
Clouds: few clouds at 3300 feet AGL
Weather: no significant weather observed at this time

METAR text: ROMY 210200Z 02014KT 9999 FEW033 25/16 Q1010
Conditions at: ROMY (MIYAKOJIMA ISLAN, JP) observed 0200 UTC 21 May 2019
Temperature: 25.0°C (77°F)
Dewpoint: 16.0°C (61°F) [RH = 57%]
Pressure (altimeter): 29.82 inches Hg (1010.0 mb)
Winds: from the NNE (20 degrees) at 16 MPH (14 knots; 7.2 m/s)
Visibility: 6 or more miles (10+ km)
Ceiling: at least 12,000 feet AGL
Clouds: few clouds at 3300 feet AGL
Weather: no significant weather observed at this time

METAR text: ROMY 210100Z 01013G23KT 330V040 9999 FEW033 25/15 Q1010
Conditions at: ROMY (MIYAKOJIMA ISLAN, JP) observed 0100 UTC 21 May 2019
Temperature: 25.0°C (77°F)
Dewpoint: 15.0°C (59°F) [RH = 54%]
Pressure (altimeter): 29.82 inches Hg (1010.0 mb)
Winds: from the N (10 degrees) at 15 MPH (13 knots; 6.7 m/s)
gusting to 26 MPH (23 knots; 11.8 m/s)
Visibility: 6 or more miles (10+ km)
Ceiling: at least 12,000 feet AGL
Clouds: few clouds at 3300 feet AGL
Weather: no significant weather observed at this time

METAR text: ROMY 210000Z 02014KT 340V060 9999 FEW032 24/15 Q1010
Conditions at: ROMY (MIYAKOJIMA ISLAN, JP) observed 0000 UTC 21 May 2019
Temperature: 24.0°C (75°F)
Dewpoint: 15.0°C (59°F) [RH = 57%]
Pressure (altimeter): 29.82 inches Hg (1010.0 mb)
Winds: from the NNE (20 degrees) at 16 MPH (14 knots; 7.2 m/s)
Visibility: 6 or more miles (10+ km)
Ceiling: at least 12,000 feet AGL
Clouds: few clouds at 3200 feet AGL
Weather: no significant weather observed at this time

METAR text: ROMY 202300Z 01014KT CAVOK 24/15 Q1010
Conditions at: ROMY (MIYAKOJIMA ISLAN, JP) observed 2300 UTC 20 May 2019
Temperature: 24.0°C (75°F)
Dewpoint: 15.0°C (59°F) [RH = 57%]
Pressure (altimeter): 29.82 inches Hg (1010.0 mb)
Winds: from the N (10 degrees) at 16 MPH (14 knots; 7.2 m/s)
Visibility: 6 or more miles (10+ km)
Ceiling: ceiling and visibility are OK
Clouds: unknown
Weather: no significant weather observed at this time

METAR text: ROMY 202200Z 01012KT 9999 FEW032 SCT/// 23/13 Q1009
Conditions at: ROMY (MIYAKOJIMA ISLAN, JP) observed 2200 UTC 20 May 2019
Temperature: 23.0°C (73°F)
Dewpoint: 13.0°C (55°F) [RH = 53%]
Pressure (altimeter): 29.79 inches Hg (1009.0 mb)
Winds: from the N (10 degrees) at 14 MPH (12 knots; 6.2 m/s)
Visibility: 6 or more miles (10+ km)
Ceiling: at least 12,000 feet AGL
Clouds: few clouds at 3200 feet AGL
Weather: no significant weather observed at this time

METAR text: ROMY 202130Z 36011KT 9999 FEW032 SCT/// 22/14 Q1009
Conditions at: ROMY (MIYAKOJIMA ISLAN, JP) observed 2130 UTC 20 May 2019
Temperature: 22.0°C (72°F)
Dewpoint: 14.0°C (57°F) [RH = 60%]
Pressure (altimeter): 29.79 inches Hg (1009.0 mb)
Winds: from the N (360 degrees) at 13 MPH (11 knots; 5.7 m/s)
Visibility: 6 or more miles (10+ km)
Ceiling: at least 12,000 feet AGL
Clouds: few clouds at 3200 feet AGL
Weather: no significant weather observed at this time

METAR text: ROMY 201100Z 01013G23KT 9999 FEW009 BKN014 BKN110 24/22 Q1007
Conditions at: ROMY (MIYAKOJIMA ISLAN, JP) observed 1100 UTC 20 May 2019
Temperature: 24.0°C (75°F)
Dewpoint: 22.0°C (72°F) [RH = 89%]
Pressure (altimeter): 29.73 inches Hg (1007.0 mb)
Winds: from the N (10 degrees) at 15 MPH (13 knots; 6.7 m/s)
gusting to 26 MPH (23 knots; 11.8 m/s)
Visibility: 6 or more miles (10+ km)
Ceiling: 1400 feet AGL
Clouds: few clouds at 900 feet AGL
broken clouds at 1400 feet AGL
broken clouds at 11000 feet AGL
Weather: no significant weather observed at this time

METAR text: ROMY 201000Z 36012KT 9999 FEW008 BKN012 BKN110 24/23 Q1006
Conditions at: ROMY (MIYAKOJIMA ISLAN, JP) observed 1000 UTC 20 May 2019
Temperature: 24.0°C (75°F)
Dewpoint: 23.0°C (73°F) [RH = 94%]
Pressure (altimeter): 29.70 inches Hg (1006.0 mb)
Winds: from the N (360 degrees) at 14 MPH (12 knots; 6.2 m/s)
Visibility: 6 or more miles (10+ km)
Ceiling: 1200 feet AGL
Clouds: few clouds at 800 feet AGL
broken clouds at 1200 feet AGL
broken clouds at 11000 feet AGL
Weather: no significant weather observed at this time

METAR text: ROMY 200900Z 35010KT 9999 FEW009 SCT015 BKN090 25/24 Q1006
Conditions at: ROMY (MIYAKOJIMA ISLAN, JP) observed 0900 UTC 20 May 2019
Temperature: 25.0°C (77°F)
Dewpoint: 24.0°C (75°F) [RH = 94%]
Pressure (altimeter): 29.70 inches Hg (1006.0 mb)
Winds: from the N (350 degrees) at 12 MPH (10 knots; 5.1 m/s)
Visibility: 6 or more miles (10+ km)
Ceiling: 9000 feet AGL
Clouds: few clouds at 900 feet AGL
scattered clouds at 1500 feet AGL
broken clouds at 9000 feet AGL
Weather: no significant weather observed at this time

METAR text: ROMY 200800Z 35009KT 9999 VCSH FEW008 SCT010 BKN090 25/24 Q1006
Conditions at: ROMY (MIYAKOJIMA ISLAN, JP) observed 0800 UTC 20 May 2019
Temperature: 25.0°C (77°F)
Dewpoint: 24.0°C (75°F) [RH = 94%]
Pressure (altimeter): 29.70 inches Hg (1006.0 mb)
Winds: from the N (350 degrees) at 10 MPH (9 knots; 4.6 m/s)
Visibility: 6 or more miles (10+ km)
Ceiling: 9000 feet AGL
Clouds: few clouds at 800 feet AGL
scattered clouds at 1000 feet AGL
broken clouds at 9000 feet AGL
Weather: VCSH  (showers in vicinity)

METAR text: ROMY 200700Z 32006KT 7000 -SHRA SCT007 BKN010 BKN028 25/24 Q1006
Conditions at: ROMY (MIYAKOJIMA ISLAN, JP) observed 0700 UTC 20 May 2019
Temperature: 25.0°C (77°F)
Dewpoint: 24.0°C (75°F) [RH = 94%]
Pressure (altimeter): 29.70 inches Hg (1006.0 mb)
Winds: from the NW (320 degrees) at 7 MPH (6 knots; 3.1 m/s)
Visibility: 4 miles ( 7 km)
Ceiling: 1000 feet AGL
Clouds: scattered clouds at 700 feet AGL
broken clouds at 1000 feet AGL
broken clouds at 2800 feet AGL
Weather: -SHRA  (light rain showers)

METAR text: ROMY 200623Z 32011KT 7000 -SHRA FEW006 BKN010 FEW020CB BKN050 25/24 Q1006 RMK 2ST006 5CU010 1CB020 7SC050 A2971 CB 25KM SE MOV SE
Conditions at: ROMY (MIYAKOJIMA ISLAN, JP) observed 0623 UTC 20 May 2019
Temperature: 25.0°C (77°F)
Dewpoint: 24.0°C (75°F) [RH = 94%]
Pressure (altimeter): 29.70 inches Hg (1006.0 mb)
Winds: from the NW (320 degrees) at 13 MPH (11 knots; 5.7 m/s)
Visibility: 4 miles ( 7 km)
Ceiling: 1000 feet AGL
Clouds: few clouds at 600 feet AGL
broken clouds at 1000 feet AGL
few clouds at 2000 feet AGL
broken clouds at 5000 feet AGL
Weather: -SHRA  (light rain showers)

METAR text: ROMY 200600Z 31009KT 290V350 5000 TSRA BR SCT005 BKN010 FEW020CB BKN050 25/25 Q1006
Conditions at: ROMY (MIYAKOJIMA ISLAN, JP) observed 0600 UTC 20 May 2019
Temperature: 25.0°C (77°F)
Dewpoint: 25.0°C (77°F) [RH = 100%]
Pressure (altimeter): 29.70 inches Hg (1006.0 mb)
Winds: from the NW (310 degrees) at 10 MPH (9 knots; 4.6 m/s)
Visibility: 3 miles ( 5 km)
Ceiling: 1000 feet AGL
Clouds: scattered clouds at 500 feet AGL
broken clouds at 1000 feet AGL
few clouds at 2000 feet AGL
broken clouds at 5000 feet AGL
Weather: TSRA BR  (rain associated with thunderstorm(s), mist)

METAR text: ROMY 200531Z 32012KT 280V350 4000 +SHRA BR FEW008 BKN012 FEW020CB BKN050 25/24 Q1006 RMK 2ST008 5CU012 2CB020 7SC050 A2971 CB 10KM N AND 15KM SW MOV SE RI++
Conditions at: ROMY (MIYAKOJIMA ISLAN, JP) observed 0531 UTC 20 May 2019
Temperature: 25.0°C (77°F)
Dewpoint: 24.0°C (75°F) [RH = 94%]
Pressure (altimeter): 29.70 inches Hg (1006.0 mb)
Winds: from the NW (320 degrees) at 14 MPH (12 knots; 6.2 m/s)
Visibility: 2.49 miles (4.01 km)
Ceiling: 1200 feet AGL
Clouds: few clouds at 800 feet AGL
broken clouds at 1200 feet AGL
few clouds at 2000 feet AGL
broken clouds at 5000 feet AGL
Weather: +SHRA BR  (heavy rain showers, mist)

METAR text: ROMY 200500Z 33011KT 290V360 9999 VCSH FEW008 BKN015 FEW020CB BKN060 28/25 Q1006
Conditions at: ROMY (MIYAKOJIMA ISLAN, JP) observed 0500 UTC 20 May 2019
Temperature: 28.0°C (82°F)
Dewpoint: 25.0°C (77°F) [RH = 84%]
Pressure (altimeter): 29.70 inches Hg (1006.0 mb)
Winds: from the NNW (330 degrees) at 13 MPH (11 knots; 5.7 m/s)
Visibility: 6 or more miles (10+ km)
Ceiling: 1500 feet AGL
Clouds: few clouds at 800 feet AGL
broken clouds at 1500 feet AGL
few clouds at 2000 feet AGL
broken clouds at 6000 feet AGL
Weather: VCSH  (showers in vicinity)

METAR text: ROMY 200400Z 33008KT 290V010 9999 FEW007 BKN011 BKN048 29/27 Q1006
Conditions at: ROMY (MIYAKOJIMA ISLAN, JP) observed 0400 UTC 20 May 2019
Temperature: 29.0°C (84°F)
Dewpoint: 27.0°C (81°F) [RH = 89%]
Pressure (altimeter): 29.70 inches Hg (1006.0 mb)
Winds: from the NNW (330 degrees) at 9 MPH (8 knots; 4.1 m/s)
Visibility: 6 or more miles (10+ km)
Ceiling: 1100 feet AGL
Clouds: few clouds at 700 feet AGL
broken clouds at 1100 feet AGL
broken clouds at 4800 feet AGL
Weather: no significant weather observed at this time

METAR text: ROMY 200300Z 28006KT 250V320 9999 FEW005 SCT008 BKN050 28/26 Q1006
Conditions at: ROMY (MIYAKOJIMA ISLAN, JP) observed 0300 UTC 20 May 2019
Temperature: 28.0°C (82°F)
Dewpoint: 26.0°C (79°F) [RH = 89%]
Pressure (altimeter): 29.70 inches Hg (1006.0 mb)
Winds: from the W (280 degrees) at 7 MPH (6 knots; 3.1 m/s)
Visibility: 6 or more miles (10+ km)
Ceiling: 5000 feet AGL
Clouds: few clouds at 500 feet AGL
scattered clouds at 800 feet AGL
broken clouds at 5000 feet AGL
Weather: no significant weather observed at this time